Time;durP1;ratioP1;P1;durP2;ratioP2;P2;SDS_P1;SDS_P2;PMS_P1;PMS_P2;Temp;Humidity;BMP_temperature;BMP_pressure;BME280_temperature;BME280_humidity;BME280_pressure;Samples;Min_cycle;Max_cycle;Signal;HPM_P1;HPM_P2
2022/12/27 00:01:47;;;;;;;3.70;1.92;;;;;9.40;101870.00;;;;5055732;28;20210;-75
2022/12/27 00:04:14;;;;;;;3.55;1.92;;;;;9.40;101859.00;;;;5056764;28;20199;-75
2022/12/27 00:06:42;;;;;;;3.88;1.80;;;;;9.40;101850.00;;;;5061373;28;20654;-75
2022/12/27 00:09:09;;;;;;;5.93;2.05;;;;;9.40;101856.00;;;;5056642;28;20669;-75
2022/12/27 00:11:38;;;;;;;5.10;2.13;;;;;9.40;101850.00;;;;5057158;28;21053;-75
2022/12/27 00:14:07;;;;;;;8.55;1.92;;;;;9.40;101863.00;;;;5061568;28;20595;-75
2022/12/27 00:16:35;;;;;;;4.05;1.85;;;;;9.40;101855.00;;;;5059814;28;20273;-75
2022/12/27 00:19:03;;;;;;;3.08;1.75;;;;;9.40;101857.00;;;;5062434;28;20191;-75
2022/12/27 00:21:30;;;;;;;5.00;2.20;;;;;9.40;101853.00;;;;5061417;28;20215;-75
2022/12/27 00:23:59;;;;;;;3.22;1.80;;;;;9.40;101863.00;;;;5062739;28;20194;-75
2022/12/27 00:26:29;;;;;;;4.28;1.83;;;;;9.40;101859.00;;;;5061078;28;20202;-75
2022/12/27 00:28:59;;;;;;;3.50;1.55;;;;;9.40;101857.00;;;;5056602;28;20688;-75
2022/12/27 00:31:28;;;;;;;2.90;1.45;;;;;9.40;101865.00;;;;5060833;28;20198;-75
2022/12/27 00:33:57;;;;;;;3.92;1.95;;;;;9.40;101869.00;;;;5054451;28;20717;-75
2022/12/27 00:36:27;;;;;;;5.55;2.00;;;;;9.40;101869.00;;;;5058383;28;20198;-75
2022/12/27 00:38:54;;;;;;;3.67;2.10;;;;;9.40;101869.00;;;;5068204;28;20668;-75
2022/12/27 00:41:21;;;;;;;3.10;2.10;;;;;9.40;101870.00;;;;5067851;28;20201;-75
2022/12/27 00:43:49;;;;;;;6.03;2.38;;;;;9.50;101871.00;;;;5056338;28;20235;-75
2022/12/27 00:46:18;;;;;;;6.18;1.95;;;;;9.50;101869.00;;;;5049408;28;20567;-75
2022/12/27 00:48:47;;;;;;;2.78;2.05;;;;;9.50;101876.00;;;;5062292;28;20230;-75
2022/12/27 00:51:16;;;;;;;4.70;1.80;;;;;9.50;101881.00;;;;5049598;28;20214;-75
2022/12/27 00:53:44;;;;;;;6.38;2.38;;;;;9.60;101872.00;;;;5050107;28;20195;-75
2022/12/27 00:56:14;;;;;;;3.17;1.50;;;;;9.60;101880.00;;;;5058644;28;20218;-75
2022/12/27 00:58:41;;;;;;;7.78;1.83;;;;;9.70;101874.00;;;;5060491;28;20203;-75
2022/12/27 01:01:10;;;;;;;4.22;1.92;;;;;9.70;101881.00;;;;5054950;28;20211;-75
2022/12/27 01:03:39;;;;;;;5.28;1.83;;;;;9.80;101881.00;;;;5066893;28;20198;-75
2022/12/27 01:06:08;;;;;;;3.03;1.83;;;;;9.80;101892.00;;;;5051159;28;20199;-75
2022/12/27 01:08:35;;;;;;;2.90;1.92;;;;;9.90;101883.00;;;;5048411;28;20227;-75
2022/12/27 01:11:03;;;;;;;2.78;1.63;;;;;9.90;101887.00;;;;5049830;28;20214;-75
2022/12/27 01:13:31;;;;;;;2.10;1.52;;;;;10.00;101895.00;;;;5048315;28;20191;-75
2022/12/27 01:15:58;;;;;;;5.68;2.00;;;;;10.00;101891.00;;;;5049062;28;20194;-75
2022/12/27 01:18:26;;;;;;;5.43;1.95;;;;;10.10;101897.00;;;;5056073;28;20769;-75
2022/12/27 01:20:55;;;;;;;3.88;1.88;;;;;10.10;101898.00;;;;5058905;28;20229;-75
2022/12/27 01:23:22;;;;;;;4.25;1.77;;;;;10.20;101895.00;;;;5059605;28;20247;-75
2022/12/27 01:25:49;;;;;;;4.90;2.10;;;;;10.20;101895.00;;;;5051918;28;20187;-75
2022/12/27 01:28:16;;;;;;;2.75;1.50;;;;;10.20;101897.00;;;;5058550;28;20226;-75
2022/12/27 01:30:44;;;;;;;4.30;1.55;;;;;10.20;101911.00;;;;5063585;28;20221;-75
2022/12/27 01:33:11;;;;;;;4.20;1.75;;;;;10.20;101921.00;;;;5068502;28;20194;-75
2022/12/27 01:35:38;;;;;;;2.53;1.92;;;;;10.20;101919.00;;;;5056366;28;20198;-75
2022/12/27 01:38:07;;;;;;;3.88;2.00;;;;;10.20;101931.00;;;;5068896;28;20553;-75
2022/12/27 01:40:36;;;;;;;3.25;1.60;;;;;10.20;101940.00;;;;5068683;28;20199;-75
2022/12/27 01:43:03;;;;;;;3.05;1.60;;;;;10.30;101959.00;;;;5061365;28;20231;-75
2022/12/27 01:45:32;;;;;;;2.83;1.88;;;;;10.30;101977.00;;;;5047852;28;20670;-75
2022/12/27 01:48:04;;;;;;;3.25;1.48;;;;;10.30;101962.00;;;;5048121;28;20531;-75
2022/12/27 01:50:35;;;;;;;2.47;1.52;;;;;10.30;101971.00;;;;5052891;28;20206;-76
2022/12/27 01:53:10;;;;;;;4.63;1.40;;;;;10.30;101974.00;;;;5055977;28;20208;-76
2022/12/27 01:55:43;;;;;;;4.03;1.13;;;;;10.30;101971.00;;;;5065261;28;20585;-76
2022/12/27 01:58:16;;;;;;;6.00;1.30;;;;;10.40;101988.00;;;;5068509;28;20560;-75
2022/12/27 02:00:46;;;;;;;4.40;1.45;;;;;10.40;101976.00;;;;5060261;28;20199;-75
2022/12/27 02:03:16;;;;;;;2.95;1.65;;;;;10.40;101982.00;;;;5048951;28;20196;-76
2022/12/27 02:05:44;;;;;;;4.35;1.67;;;;;10.50;101982.00;;;;5065207;28;20198;-75
2022/12/27 02:08:32;;;;;;;3.45;1.48;;;;;10.50;101970.00;;;;5049491;28;20226;-76
2022/12/27 02:10:59;;;;;;;3.50;2.40;;;;;10.50;101969.00;;;;5056455;28;20195;-75
2022/12/27 02:13:28;;;;;;;3.40;1.63;;;;;10.60;101961.00;;;;5053723;28;20191;-75
2022/12/27 02:15:56;;;;;;;3.28;1.52;;;;;10.60;101962.00;;;;5048945;28;20202;-76
2022/12/27 02:18:23;;;;;;;3.13;1.85;;;;;10.60;101951.00;;;;5048320;28;20207;-76
2022/12/27 02:21:17;;;;;;;2.70;1.90;;;;;10.50;101951.00;;;;5048838;28;20202;-76
2022/12/27 02:24:07;;;;;;;4.38;1.70;;;;;10.60;101955.00;;;;5047843;28;20191;-75
2022/12/27 02:26:51;;;;;;;3.45;1.70;;;;;10.50;101955.00;;;;5056692;28;20202;-76
2022/12/27 02:29:46;;;;;;;4.13;1.35;;;;;10.50;101964.00;;;;5051054;28;20315;-76
2022/12/27 02:32:20;;;;;;;3.33;1.40;;;;;10.50;101964.00;;;;5061946;28;20207;-76
2022/12/27 02:34:57;;;;;;;4.00;1.60;;;;;10.50;101966.00;;;;5051949;28;20202;-76
2022/12/27 02:37:28;;;;;;;4.40;1.15;;;;;10.50;101978.00;;;;5053279;28;20194;-75
2022/12/27 02:53:02;;;;;;;1.77;1.20;;;;;10.50;101987.00;;;;5069878;28;20282;-76
2022/12/27 02:54:18;;;;;;;3.47;1.33;;;;;10.30;101975.00;;;;5051668;28;20218;-76
2022/12/27 02:57:07;;;;;;;4.43;1.60;;;;;10.30;101979.00;;;;5051126;28;20548;-75
2022/12/27 03:08:45;;;;;;;2.15;1.10;;;;;10.30;101989.00;;;;5064818;28;20601;-75
2022/12/27 03:16:55;;;;;;;3.42;1.48;;;;;10.30;101992.00;;;;5065485;28;20226;-75
2022/12/27 03:33:23;;;;;;;3.42;1.25;;;;;10.30;101986.00;;;;5049997;28;20268;-75
2022/12/27 03:38:48;;;;;;;3.15;1.55;;;;;10.20;101997.00;;;;5060557;28;20336;-75
2022/12/27 03:44:23;;;;;;;6.45;1.67;;;;;10.30;101996.00;;;;5048134;28;20238;-75
2022/12/27 03:46:55;;;;;;;2.65;1.13;;;;;10.30;102003.00;;;;5050412;28;20214;-75
2022/12/27 03:49:30;;;;;;;3.30;1.60;;;;;10.30;102006.00;;;;5051963;28;20242;-75
2022/12/27 03:52:06;;;;;;;4.70;1.58;;;;;10.20;102016.00;;;;5053474;28;20226;-75
2022/12/27 03:54:37;;;;;;;3.45;1.48;;;;;10.20;102016.00;;;;5050348;28;20209;-75
2022/12/27 03:57:07;;;;;;;2.53;1.40;;;;;10.20;102016.00;;;;5051358;28;20207;-75
2022/12/27 03:59:35;;;;;;;3.78;1.80;;;;;10.30;102015.00;;;;5050685;28;20199;-75
2022/12/27 04:02:02;;;;;;;1.60;0.90;;;;;10.30;102020.00;;;;5056370;28;20223;-75
2022/12/27 04:04:29;;;;;;;10.02;1.83;;;;;10.30;102017.00;;;;5053949;28;20207;-75
2022/12/27 04:06:58;;;;;;;1.92;1.30;;;;;10.20;102022.00;;;;5063143;28;20665;-75
2022/12/27 04:36:57;;;;;;;4.70;1.33;;;;;10.10;102034.00;;;;5059427;28;20254;-75
2022/12/27 04:39:25;;;;;;;2.85;1.35;;;;;10.00;102041.00;;;;5058886;28;20197;-75
2022/12/27 04:55:46;;;;;;;5.82;1.55;;;;;10.00;102049.00;;;;5049066;28;20253;-75
2022/12/27 04:58:14;;;;;;;5.95;1.20;;;;;10.00;102041.00;;;;5049114;28;20208;-75
2022/12/27 05:03:26;;;;;;;3.58;0.82;;;;;10.00;102041.00;;;;5051112;28;20190;-75
2022/12/27 05:05:54;;;;;;;3.20;1.02;;;;;10.00;102047.00;;;;5048981;28;20195;-75
2022/12/27 05:14:01;;;;;;;2.53;1.20;;;;;10.00;102045.00;;;;5048404;28;20221;-75
2022/12/27 05:16:29;;;;;;;2.42;1.00;;;;;10.00;102046.00;;;;5056808;28;20195;-75
2022/12/27 05:18:57;;;;;;;5.65;1.40;;;;;10.00;102050.00;;;;5052509;28;20203;-75
2022/12/27 05:21:25;;;;;;;3.05;1.15;;;;;10.00;102045.00;;;;5050256;28;20670;-75
2022/12/27 05:26:39;;;;;;;5.43;1.35;;;;;10.10;102053.00;;;;5057208;28;20671;-75
2022/12/27 05:29:07;;;;;;;3.58;1.25;;;;;10.10;102049.00;;;;5054707;28;20227;-75
2022/12/27 05:31:34;;;;;;;4.30;1.27;;;;;10.10;102056.00;;;;5066448;28;20214;-75
2022/12/27 05:34:02;;;;;;;3.10;1.52;;;;;10.00;102058.00;;;;5055942;28;20206;-76
2022/12/27 05:36:29;;;;;;;7.22;1.45;;;;;10.00;102062.00;;;;5050322;28;20207;-76
2022/12/27 05:38:57;;;;;;;3.47;1.20;;;;;10.00;102066.00;;;;5049745;28;20191;-76
2022/12/27 05:41:25;;;;;;;3.83;1.70;;;;;10.00;102072.00;;;;5050251;28;20203;-76
2022/12/27 05:43:53;;;;;;;4.78;1.55;;;;;10.00;102080.00;;;;5052253;28;20218;-76
2022/12/27 05:46:21;;;;;;;6.28;1.25;;;;;10.00;102080.00;;;;5058899;28;20657;-76
2022/12/27 05:48:49;;;;;;;3.65;2.05;;;;;10.00;102089.00;;;;5054797;28;20697;-76
2022/12/27 05:51:18;;;;;;;5.15;1.98;;;;;10.00;102085.00;;;;5056109;28;20191;-76
2022/12/27 05:53:46;;;;;;;8.00;1.92;;;;;10.00;102089.00;;;;5051261;28;20210;-76
2022/12/27 05:56:16;;;;;;;2.45;1.20;;;;;10.00;102086.00;;;;5062349;28;20589;-74
2022/12/27 05:58:43;;;;;;;2.60;1.27;;;;;10.00;102084.00;;;;5048434;28;20191;-74
2022/12/27 06:01:14;;;;;;;2.33;1.00;;;;;10.00;102079.00;;;;5048205;28;20206;-76
2022/12/27 06:03:42;;;;;;;4.45;1.48;;;;;10.00;102083.00;;;;5066573;28;20199;-77
2022/12/27 06:06:09;;;;;;;3.50;1.20;;;;;10.00;102092.00;;;;5056224;28;20203;-74
2022/12/27 06:08:37;;;;;;;2.60;1.38;;;;;10.00;102092.00;;;;5063674;28;20707;-74
2022/12/27 06:11:07;;;;;;;5.70;1.60;;;;;10.00;102084.00;;;;5063658;28;20198;-74
2022/12/27 06:13:35;;;;;;;5.57;1.77;;;;;10.00;102098.00;;;;5052206;28;20194;-74
2022/12/27 06:16:04;;;;;;;11.45;1.40;;;;;10.00;102089.00;;;;5068035;28;20199;-74
2022/12/27 06:18:35;;;;;;;5.10;1.63;;;;;9.90;102095.00;;;;5058143;28;20200;-74
2022/12/27 06:21:05;;;;;;;4.22;1.75;;;;;9.90;102097.00;;;;5052800;28;20197;-74
2022/12/27 06:23:32;;;;;;;2.80;1.65;;;;;9.90;102104.00;;;;5059513;28;20215;-74
2022/12/27 06:26:03;;;;;;;4.15;1.77;;;;;9.90;102102.00;;;;5057704;28;20206;-74
2022/12/27 06:28:30;;;;;;;3.13;1.27;;;;;9.90;102105.00;;;;5047986;28;20226;-74
2022/12/27 06:30:59;;;;;;;6.10;1.60;;;;;9.90;102109.00;;;;5067555;28;20195;-75
2022/12/27 06:33:27;;;;;;;4.03;1.45;;;;;9.80;102105.00;;;;5047435;28;20227;-75
2022/12/27 06:35:56;;;;;;;2.97;1.55;;;;;9.80;102101.00;;;;5053791;28;20194;-75
2022/12/27 06:38:24;;;;;;;1.77;1.20;;;;;9.80;102115.00;;;;5060970;28;20214;-75
2022/12/27 06:40:51;;;;;;;4.22;1.40;;;;;9.80;102112.00;;;;5056113;28;20203;-75
2022/12/27 06:43:18;;;;;;;4.60;1.55;;;;;9.80;102119.00;;;;5063860;28;20237;-75
2022/12/27 06:45:55;;;;;;;2.60;1.38;;;;;9.80;102126.00;;;;5068442;28;20218;-75
2022/12/27 06:48:22;;;;;;;3.75;1.60;;;;;9.80;102126.00;;;;5066632;28;20202;-75
2022/12/27 06:50:49;;;;;;;6.30;1.73;;;;;9.70;102133.00;;;;5060509;28;20188;-76
2022/12/27 06:53:18;;;;;;;2.20;1.52;;;;;9.70;102126.00;;;;5051703;28;20210;-75
2022/12/27 06:55:45;;;;;;;4.93;1.42;;;;;9.70;102129.00;;;;5049051;28;22880;-75
2022/12/27 06:58:13;;;;;;;2.92;1.38;;;;;9.70;102129.00;;;;5052664;28;20315;-76
2022/12/27 07:00:41;;;;;;;4.13;1.88;;;;;9.70;102125.00;;;;5064055;28;20240;-75
2022/12/27 07:03:09;;;;;;;2.92;1.40;;;;;9.70;102125.00;;;;5064008;28;20195;-76
2022/12/27 07:05:37;;;;;;;3.67;1.45;;;;;9.60;102126.00;;;;5047784;28;20196;-75
2022/12/27 07:08:05;;;;;;;3.65;1.55;;;;;9.60;102122.00;;;;5050740;28;20696;-75
2022/12/27 07:10:33;;;;;;;2.47;1.50;;;;;9.60;102121.00;;;;5064399;28;20230;-74
2022/12/27 07:13:00;;;;;;;3.47;1.10;;;;;9.60;102121.00;;;;5062831;28;20203;-74
2022/12/27 07:15:28;;;;;;;5.47;1.35;;;;;9.60;102131.00;;;;5056211;28;20219;-74
2022/12/27 07:17:55;;;;;;;4.18;1.40;;;;;9.60;102127.00;;;;5054029;28;20206;-74
2022/12/27 07:20:22;;;;;;;6.18;1.33;;;;;9.60;102134.00;;;;5051552;28;20226;-75
2022/12/27 07:22:50;;;;;;;3.35;1.23;;;;;9.60;102142.00;;;;5054148;28;20211;-75
2022/12/27 07:25:17;;;;;;;5.30;1.50;;;;;9.60;102145.00;;;;5057272;28;20203;-74
2022/12/27 07:27:45;;;;;;;6.57;1.50;;;;;9.60;102140.00;;;;5052683;28;20196;-75
2022/12/27 07:30:13;;;;;;;3.97;1.08;;;;;9.60;102144.00;;;;5052005;28;20223;-74
2022/12/27 07:32:40;;;;;;;3.90;1.30;;;;;9.60;102153.00;;;;5054710;28;20664;-74
2022/12/27 07:35:08;;;;;;;4.43;1.15;;;;;9.60;102152.00;;;;5051806;28;20890;-75
2022/12/27 07:37:35;;;;;;;3.80;1.35;;;;;9.60;102155.00;;;;5060411;28;20195;-74
2022/12/27 07:40:03;;;;;;;3.88;1.00;;;;;9.60;102157.00;;;;5061535;28;20222;-74
2022/12/27 07:42:30;;;;;;;2.80;1.23;;;;;9.60;102150.00;;;;5050963;28;20232;-75
2022/12/27 07:44:59;;;;;;;2.42;1.02;;;;;9.60;102164.00;;;;5050640;28;20203;-75
2022/12/27 07:47:26;;;;;;;3.80;1.35;;;;;9.60;102163.00;;;;5050795;28;20195;-75
2022/12/27 07:49:53;;;;;;;2.20;1.20;;;;;9.60;102161.00;;;;5061274;28;20746;-74
2022/12/27 07:52:20;;;;;;;2.72;1.20;;;;;9.60;102166.00;;;;5056258;28;20200;-74
2022/12/27 07:54:48;;;;;;;4.35;1.52;;;;;9.60;102170.00;;;;5051664;28;20208;-74
2022/12/27 07:57:15;;;;;;;4.72;1.65;;;;;9.60;102168.00;;;;5061259;28;20202;-74
2022/12/27 07:59:42;;;;;;;6.18;1.90;;;;;9.60;102176.00;;;;5054554;28;20222;-75
2022/12/27 08:02:11;;;;;;;2.72;1.85;;;;;9.60;102182.00;;;;5051304;28;20590;-74
2022/12/27 08:04:38;;;;;;;3.15;1.55;;;;;9.60;102189.00;;;;5053198;28;20207;-74
2022/12/27 08:07:09;;;;;;;5.10;1.58;;;;;9.60;102188.00;;;;5057547;28;20209;-74
2022/12/27 08:09:38;;;;;;;2.78;1.38;;;;;9.60;102196.00;;;;5053375;28;20219;-75
2022/12/27 08:12:06;;;;;;;4.80;1.65;;;;;9.60;102198.00;;;;5056965;28;20200;-75
2022/12/27 08:14:34;;;;;;;4.13;1.75;;;;;9.60;102199.00;;;;5056878;28;20191;-74
2022/12/27 08:17:05;;;;;;;4.13;1.70;;;;;9.60;102194.00;;;;5054494;28;20195;-74
2022/12/27 08:19:34;;;;;;;7.18;2.20;;;;;9.70;102194.00;;;;5062978;28;20740;-74
2022/12/27 08:22:01;;;;;;;7.45;2.10;;;;;9.70;102194.00;;;;5053661;28;20206;-74
2022/12/27 08:24:28;;;;;;;6.05;1.88;;;;;9.70;102197.00;;;;5057348;28;20282;-74
2022/12/27 08:26:55;;;;;;;4.25;1.88;;;;;9.70;102206.00;;;;5054238;28;20199;-74
2022/12/27 08:29:23;;;;;;;4.03;2.13;;;;;9.70;102205.00;;;;5055942;28;20697;-74
2022/12/27 08:31:50;;;;;;;5.22;2.08;;;;;9.80;102205.00;;;;5055549;28;20555;-74
2022/12/27 08:34:18;;;;;;;4.57;1.73;;;;;9.80;102195.00;;;;5062283;28;20187;-75
2022/12/27 08:36:46;;;;;;;3.67;2.15;;;;;9.80;102204.00;;;;5059204;28;20201;-74
2022/12/27 08:39:13;;;;;;;4.32;2.22;;;;;9.90;102200.00;;;;5060869;28;20192;-74
2022/12/27 08:41:41;;;;;;;3.55;2.03;;;;;9.90;102197.00;;;;5055539;28;20195;-74
2022/12/27 08:44:09;;;;;;;6.60;2.30;;;;;9.90;102194.00;;;;5059238;28;20258;-74
2022/12/27 08:46:37;;;;;;;3.47;1.92;;;;;9.90;102203.00;;;;5055778;28;21060;-74
2022/12/27 08:49:04;;;;;;;4.80;2.50;;;;;9.90;102204.00;;;;5055697;28;20200;-74
2022/12/27 08:51:32;;;;;;;4.05;2.50;;;;;10.00;102205.00;;;;5057128;28;20203;-74
2022/12/27 08:54:01;;;;;;;5.43;2.10;;;;;10.00;102205.00;;;;5061844;28;20227;-74
2022/12/27 08:56:28;;;;;;;5.57;2.22;;;;;10.00;102194.00;;;;5051746;28;20187;-74
2022/12/27 08:58:55;;;;;;;3.88;2.40;;;;;10.00;102190.00;;;;5055949;28;20223;-74
2022/12/27 09:01:24;;;;;;;7.25;2.22;;;;;10.00;102187.00;;;;5052698;28;20199;-74
2022/12/27 09:03:51;;;;;;;5.43;2.88;;;;;10.00;102198.00;;;;5056541;28;20199;-74
2022/12/27 09:06:20;;;;;;;3.92;2.15;;;;;10.00;102191.00;;;;5054696;28;20973;-74
2022/12/27 09:08:49;;;;;;;4.65;2.40;;;;;10.00;102195.00;;;;5062205;28;20199;-74
2022/12/27 09:11:20;;;;;;;3.45;2.33;;;;;10.00;102204.00;;;;5050571;28;20610;-75
2022/12/27 09:13:47;;;;;;;4.05;2.33;;;;;10.10;102210.00;;;;5058511;28;20194;-75
2022/12/27 09:16:17;;;;;;;4.85;2.40;;;;;10.10;102207.00;;;;5053416;28;20199;-75
2022/12/27 09:18:47;;;;;;;2.88;2.13;;;;;10.10;102219.00;;;;5050752;28;20200;-75
2022/12/27 09:21:15;;;;;;;4.20;2.25;;;;;10.10;102223.00;;;;5063504;28;20198;-75
2022/12/27 09:23:43;;;;;;;3.13;2.03;;;;;10.20;102218.00;;;;5049437;28;20212;-75
2022/12/27 09:26:13;;;;;;;2.83;2.17;;;;;10.20;102224.00;;;;5057432;28;20206;-75
2022/12/27 09:28:42;;;;;;;8.02;3.15;;;;;10.20;102218.00;;;;5060769;28;20195;-75
2022/12/27 09:31:11;;;;;;;3.20;2.03;;;;;10.20;102223.00;;;;5067619;28;21024;-75
2022/12/27 09:33:39;;;;;;;3.10;1.85;;;;;10.30;102233.00;;;;5063817;28;20198;-76
2022/12/27 09:36:08;;;;;;;4.82;2.50;;;;;10.30;102232.00;;;;5052495;28;20581;-77
2022/12/27 09:38:37;;;;;;;6.63;2.55;;;;;10.30;102232.00;;;;5049317;28;20210;-75
2022/12/27 09:41:07;;;;;;;3.72;2.45;;;;;10.30;102239.00;;;;5048229;28;20219;-76
2022/12/27 09:43:41;;;;;;;3.65;2.47;;;;;10.30;102235.00;;;;5050660;28;20224;-75
2022/12/27 09:46:14;;;;;;;5.07;2.22;;;;;10.40;102243.00;;;;5062019;28;20199;-75
2022/12/27 09:48:41;;;;;;;5.65;2.58;;;;;10.50;102237.00;;;;5062560;28;20202;-75
2022/12/27 09:51:16;;;;;;;5.00;2.60;;;;;10.50;102229.00;;;;5055640;28;20241;-75
2022/12/27 09:53:47;;;;;;;3.35;2.25;;;;;10.50;102232.00;;;;5049290;28;20202;-75
2022/12/27 09:56:19;;;;;;;4.53;2.20;;;;;10.60;102230.00;;;;5048089;28;20200;-75
2022/12/27 09:58:50;;;;;;;4.50;2.35;;;;;10.60;102225.00;;;;5052125;28;20210;-75
2022/12/27 10:01:22;;;;;;;8.85;2.47;;;;;10.60;102222.00;;;;5051298;28;20200;-75
2022/12/27 10:03:50;;;;;;;2.63;1.85;;;;;10.70;102228.00;;;;5048457;28;20215;-75
2022/12/27 10:06:32;;;;;;;6.40;2.53;;;;;10.70;102228.00;;;;5047214;28;20207;-76
2022/12/27 10:09:05;;;;;;;4.45;3.10;;;;;10.80;102226.00;;;;5048579;28;20210;-75
2022/12/27 10:11:40;;;;;;;5.80;2.42;;;;;10.80;102226.00;;;;5056342;28;20219;-76
2022/12/27 10:14:21;;;;;;;4.53;2.63;;;;;10.80;102234.00;;;;5052026;28;20199;-75
2022/12/27 10:16:56;;;;;;;4.30;2.33;;;;;10.90;102236.00;;;;5051826;28;20660;-75
2022/12/27 10:19:35;;;;;;;5.05;2.13;;;;;10.90;102233.00;;;;5056367;28;20198;-75
2022/12/27 10:22:13;;;;;;;3.45;1.88;;;;;10.90;102228.00;;;;5059970;28;20212;-76
2022/12/27 10:24:44;;;;;;;3.95;2.00;;;;;11.00;102236.00;;;;5048342;28;20188;-75
2022/12/27 10:27:14;;;;;;;6.78;2.50;;;;;11.00;102248.00;;;;5047442;28;20669;-75
2022/12/27 10:29:43;;;;;;;5.60;2.45;;;;;11.10;102248.00;;;;5047906;28;20255;-75
2022/12/27 10:32:14;;;;;;;4.20;2.10;;;;;11.10;102237.00;;;;5046265;28;21116;-75
2022/12/27 10:34:41;;;;;;;3.10;2.10;;;;;11.20;102248.00;;;;5049172;28;20196;-76
2022/12/27 10:37:14;;;;;;;4.25;2.50;;;;;11.20;102246.00;;;;5055368;28;20591;-75
2022/12/27 10:39:42;;;;;;;4.10;1.85;;;;;11.30;102250.00;;;;5059188;28;20191;-75
2022/12/27 10:42:24;;;;;;;5.72;2.60;;;;;11.40;102251.00;;;;5048911;28;20207;-75
2022/12/27 10:45:07;;;;;;;2.83;2.25;;;;;11.50;102248.00;;;;5067862;28;20199;-76
2022/12/27 10:47:34;;;;;;;3.33;1.95;;;;;11.60;102245.00;;;;5053817;28;20199;-75
2022/12/27 10:50:09;;;;;;;4.05;2.13;;;;;11.60;102246.00;;;;5051755;28;20223;-75
2022/12/27 10:52:38;;;;;;;4.60;2.22;;;;;11.70;102251.00;;;;5054475;28;20191;-76
2022/12/27 10:55:26;;;;;;;5.53;2.28;;;;;11.80;102253.00;;;;5054731;28;20196;-75
2022/12/27 10:57:53;;;;;;;4.68;2.70;;;;;11.80;102259.00;;;;5057299;28;20215;-76
2022/12/27 11:00:23;;;;;;;5.28;2.53;;;;;11.90;102252.00;;;;5054699;28;20202;-76
2022/12/27 11:02:52;;;;;;;5.60;2.85;;;;;11.90;102249.00;;;;5059124;28;20200;-74
2022/12/27 11:05:24;;;;;;;4.82;2.65;;;;;12.00;102250.00;;;;5063715;28;20199;-75
2022/12/27 11:07:52;;;;;;;6.90;2.45;;;;;12.10;102251.00;;;;5050921;28;20208;-75
2022/12/27 11:10:22;;;;;;;3.85;2.33;;;;;12.10;102249.00;;;;5064827;28;20223;-75
2022/12/27 11:12:56;;;;;;;5.00;2.83;;;;;12.10;102254.00;;;;5062550;28;20203;-75
2022/12/27 11:15:27;;;;;;;8.27;2.58;;;;;12.30;102250.00;;;;5060891;28;20207;-75
2022/12/27 11:17:56;;;;;;;4.68;2.75;;;;;12.40;102236.00;;;;5066886;28;20207;-76
2022/12/27 11:20:26;;;;;;;4.22;2.85;;;;;12.40;102247.00;;;;5050428;28;20200;-75
2022/12/27 11:22:58;;;;;;;4.07;2.55;;;;;12.50;102238.00;;;;5050426;28;20230;-75
2022/12/27 11:25:27;;;;;;;3.50;2.58;;;;;12.50;102239.00;;;;5050683;28;20203;-75
2022/12/27 11:27:58;;;;;;;6.50;3.25;;;;;12.60;102231.00;;;;5051350;28;20187;-75
2022/12/27 11:30:31;;;;;;;5.30;2.83;;;;;12.60;102216.00;;;;5050882;28;20337;-75
2022/12/27 11:33:02;;;;;;;5.72;2.70;;;;;12.60;102218.00;;;;5051075;28;20200;-75
2022/12/27 11:35:29;;;;;;;4.85;2.83;;;;;12.70;102215.00;;;;5049799;28;20293;-75
2022/12/27 11:37:57;;;;;;;4.18;3.05;;;;;12.70;102219.00;;;;5066375;28;20753;-75
2022/12/27 11:40:29;;;;;;;9.38;3.10;;;;;12.70;102224.00;;;;5066358;28;20203;-75
2022/12/27 11:43:05;;;;;;;4.88;2.97;;;;;12.70;102209.00;;;;5070469;28;20288;-75
2022/12/27 11:45:40;;;;;;;5.97;2.63;;;;;12.70;102211.00;;;;5070101;28;20195;-75
2022/12/27 11:48:24;;;;;;;4.57;2.72;;;;;12.70;102208.00;;;;5058043;28;20645;-75
2022/12/27 11:51:16;;;;;;;5.70;2.75;;;;;12.80;102202.00;;;;5050830;28;20227;-75
2022/12/27 11:54:05;;;;;;;8.27;3.30;;;;;12.80;102208.00;;;;5061684;28;20575;-75
2022/12/27 11:56:37;;;;;;;3.75;2.63;;;;;12.90;102208.00;;;;5069135;28;21080;-75
2022/12/27 11:59:34;;;;;;;8.07;3.35;;;;;12.90;102208.00;;;;5070286;28;20195;-75
2022/12/27 12:02:38;;;;;;;5.40;2.63;;;;;12.90;102200.00;;;;5059436;28;20216;-75
2022/12/27 12:05:48;;;;;;;3.08;2.28;;;;;13.00;102193.00;;;;5063684;28;20210;-75
2022/12/27 12:09:02;;;;;;;5.35;2.22;;;;;13.10;102195.00;;;;5070186;28;20657;-75
2022/12/27 12:11:46;;;;;;;3.55;2.42;;;;;13.30;102196.00;;;;5055065;28;20239;-75
2022/12/27 12:14:35;;;;;;;4.95;2.53;;;;;13.30;102193.00;;;;5069101;28;20213;-75
2022/12/27 12:17:41;;;;;;;5.38;2.42;;;;;13.50;102192.00;;;;5071107;28;20203;-75
2022/12/27 12:20:48;;;;;;;3.65;2.08;;;;;13.60;102183.00;;;;5070924;28;20206;-75
2022/12/27 12:23:27;;;;;;;3.63;1.85;;;;;13.60;102188.00;;;;5007782;28;20224;-75
2022/12/27 12:26:16;;;;;;;3.72;1.92;;;;;13.70;102187.00;;;;5057437;28;20191;-75
2022/12/27 12:29:25;;;;;;;5.75;2.20;;;;;13.70;102178.00;;;;5070783;28;20195;-75
2022/12/27 12:32:19;;;;;;;4.75;2.10;;;;;13.70;102175.00;;;;5051197;28;20231;-75
2022/12/27 12:35:20;;;;;;;5.53;2.33;;;;;13.80;102181.00;;;;5049638;28;20195;-75
2022/12/27 12:38:03;;;;;;;3.28;1.63;;;;;13.80;102178.00;;;;5034240;28;20205;-75
2022/12/27 12:41:03;;;;;;;5.03;2.17;;;;;13.90;102172.00;;;;5051606;28;20207;-75
2022/12/27 12:43:47;;;;;;;4.95;2.03;;;;;13.80;102172.00;;;;5069176;28;20349;-75
2022/12/27 12:46:27;;;;;;;3.53;1.88;;;;;13.80;102157.00;;;;5058504;28;20199;-75
2022/12/27 12:49:24;;;;;;;6.20;2.15;;;;;13.70;102154.00;;;;5056439;28;20673;-75
2022/12/27 12:52:31;;;;;;;2.13;1.75;;;;;13.70;102150.00;;;;5030625;28;20689;-75
2022/12/27 12:55:18;;;;;;;3.88;2.28;;;;;13.80;102142.00;;;;5053322;28;20202;-75
2022/12/27 12:57:56;;;;;;;2.60;1.60;;;;;13.80;102133.00;;;;5067173;28;20210;-75
2022/12/27 13:00:42;;;;;;;3.35;2.15;;;;;13.80;102136.00;;;;5050924;28;20195;-75
2022/12/27 13:03:44;;;;;;;2.50;1.95;;;;;13.70;102128.00;;;;5068920;28;20195;-75
2022/12/27 13:06:27;;;;;;;3.50;1.92;;;;;13.80;102107.00;;;;5065781;28;20605;-75
2022/12/27 13:09:08;;;;;;;3.13;2.00;;;;;13.90;102104.00;;;;5054029;28;20198;-75
2022/12/27 13:11:47;;;;;;;3.05;1.70;;;;;14.00;102100.00;;;;5063660;28;20246;-75
2022/12/27 13:14:51;;;;;;;2.05;1.63;;;;;14.10;102089.00;;;;5049900;28;20196;-75
2022/12/27 13:17:24;;;;;;;3.88;2.17;;;;;14.20;102087.00;;;;5048180;28;20223;-75
2022/12/27 13:20:05;;;;;;;4.25;1.98;;;;;14.30;102078.00;;;;5051809;28;20203;-75
2022/12/27 13:22:43;;;;;;;2.60;1.75;;;;;14.30;102074.00;;;;5066541;28;20221;-75
2022/12/27 13:25:24;;;;;;;6.13;2.45;;;;;14.30;102079.00;;;;5056618;28;20206;-75
2022/12/27 13:27:59;;;;;;;3.22;1.75;;;;;14.40;102079.00;;;;5049355;28;20258;-75
2022/12/27 13:30:33;;;;;;;4.40;2.10;;;;;14.50;102083.00;;;;5064587;28;20215;-75
2022/12/27 13:33:18;;;;;;;6.22;3.15;;;;;14.40;102078.00;;;;5063751;28;20218;-75
2022/12/27 13:36:04;;;;;;;2.30;1.63;;;;;14.40;102075.00;;;;5068683;28;20202;-75
2022/12/27 13:38:43;;;;;;;2.95;1.58;;;;;14.40;102074.00;;;;5051586;28;20199;-75
2022/12/27 13:41:37;;;;;;;3.58;2.10;;;;;14.30;102072.00;;;;5048071;28;20207;-75
2022/12/27 13:44:33;;;;;;;3.72;1.80;;;;;14.30;102062.00;;;;5048254;28;20743;-75
2022/12/27 13:47:41;;;;;;;4.28;1.88;;;;;14.30;102062.00;;;;5051648;28;20202;-75
2022/12/27 13:50:42;;;;;;;2.22;1.38;;;;;14.20;102071.00;;;;4986913;28;20205;-75
2022/12/27 13:53:49;;;;;;;3.25;1.80;;;;;14.10;102061.00;;;;4985321;28;20199;-75
2022/12/27 13:56:24;;;;;;;2.55;1.60;;;;;14.10;102053.00;;;;5063722;28;20202;-75
2022/12/27 13:59:28;;;;;;;3.80;1.77;;;;;14.00;102053.00;;;;5068402;28;20198;-75
2022/12/27 14:02:26;;;;;;;1.90;1.65;;;;;14.00;102032.00;;;;5051565;28;20195;-75
2022/12/27 14:05:20;;;;;;;2.50;1.42;;;;;13.90;102038.00;;;;5047454;28;20191;-75
2022/12/27 14:07:57;;;;;;;2.80;1.90;;;;;13.90;102033.00;;;;5046041;28;20207;-76
2022/12/27 14:10:36;;;;;;;5.05;1.90;;;;;13.90;102035.00;;;;5046458;28;20199;-75
2022/12/27 14:13:06;;;;;;;5.60;2.05;;;;;13.90;102027.00;;;;5055477;28;20203;-76
2022/12/27 14:16:14;;;;;;;3.05;1.90;;;;;13.70;102023.00;;;;5053400;28;20354;-75
2022/12/27 14:19:10;;;;;;;3.22;1.83;;;;;13.70;102015.00;;;;4997556;28;20197;-75
2022/12/27 14:21:57;;;;;;;4.22;1.50;;;;;13.70;102021.00;;;;5048198;28;20576;-76